Main page
METAR-TAF:

METAR-TAF

Airports :

Ilam Airport

Ilam, Iran

latitude: 33-35-09N, longitude: 046-24-20E, elevation: 1334 m

Current weather observation

The report was made 29 minutes ago, at 22:00 UTC
Wind 4 kt from the East/Southeast
Temperature 7°C
Humidity 93%
Pressure 1025 hPa
Visibility 10 km or more
no clouds below 1500 m and no cumulonimbus

METAR: OICI 172200Z 11004KT CAVOK 07/06 Q1025 A3027

Time: 01:59 (22:29 UTC)

Forecast

The report was made 4 hours and 59 minutes ago, at 17:30 UTC
Forecast valid from 17 at 18 UTC to 18 at 24 UTC
Wind 8 kt from the East/Northeast
Visibility 10 km or more
no clouds below 1500 m and no cumulonimbus

TAF: OICI 171730Z 1718/1824 07004MPS CAVOK

Weather observations and forecasts of more than 4000 airports (METAR and TAF reports).

The available stations are represented by yellow and red dots on the map.

Hover mouse over dot to see the name of the station.

Then click to see weather observations and forecasts.

To change the map : click on the green buttons with a black cross to zoom in, on the green button with a dash to zoom out, or on the green arrows for adjacent maps.


METAR-TAF: